Terminal Aerodrome Forecast
Issued by NWS

Home | Current Version | Previous Version | Text Only | Print | Product List | Glossary On
Versions: 1 2 3 4 5 6 7 8 9 10 11 12 13 14 15 16
142
FTPA31 PHFO 212330
TAFHLI
TAF
PHLI 212330Z 2200/2224 03014KT P6SM FEW025 BKN050
     FM220100 02015G23KT P6SM -SHRA SCT025 OVC045
     FM220900 03012KT P6SM VCSH SCT025 BKN050
     FM222000 03014G22KT P6SM SCT025 SCT050=

USA.gov is the U.S. government's official web portal to all federal, state and local government web resources and services.